Time;durP1;ratioP1;P1;durP2;ratioP2;P2;SDS_P1;SDS_P2;PMS_P1;PMS_P2;Temp;Humidity;BMP_temperature;BMP_pressure;BME280_temperature;BME280_humidity;BME280_pressure;Samples;Min_cycle;Max_cycle;Signal;HPM_P1;HPM_P2
2023/04/27 00:02:12;;;;;;;16.60;6.75;;;6.50;99.90;;;;;;4990804;28;20130;-72
2023/04/27 00:04:38;;;;;;;16.52;7.40;;;6.40;99.90;;;;;;4990178;28;21795;-72
2023/04/27 00:07:03;;;;;;;14.50;7.07;;;6.30;99.90;;;;;;4990313;28;20148;-71
2023/04/27 00:09:29;;;;;;;14.95;6.95;;;6.30;99.90;;;;;;4990635;28;20062;-71
2023/04/27 00:11:55;;;;;;;18.25;7.22;;;6.20;99.90;;;;;;4991691;28;20423;-72
2023/04/27 00:14:20;;;;;;;19.60;8.07;;;6.20;99.90;;;;;;4990883;28;20038;-72
2023/04/27 00:16:46;;;;;;;17.83;7.90;;;6.20;99.90;;;;;;4989998;28;20033;-73
2023/04/27 00:19:12;;;;;;;20.05;7.88;;;6.20;99.90;;;;;;4983784;28;20069;-73
2023/04/27 00:21:38;;;;;;;14.00;7.30;;;6.20;99.90;;;;;;4991828;28;20042;-73
2023/04/27 00:24:04;;;;;;;16.33;6.80;;;6.10;99.90;;;;;;4990919;28;20042;-71
2023/04/27 00:26:30;;;;;;;12.27;6.78;;;6.10;99.90;;;;;;4988780;28;20113;-71
2023/04/27 00:28:56;;;;;;;17.88;7.70;;;6.10;99.90;;;;;;4972914;28;20689;-72
2023/04/27 00:31:21;;;;;;;18.38;7.53;;;6.10;99.90;;;;;;4990079;28;20386;-71
2023/04/27 00:33:47;;;;;;;16.15;6.47;;;6.00;99.90;;;;;;4973425;28;20493;-71
2023/04/27 00:36:13;;;;;;;16.58;6.72;;;6.00;99.90;;;;;;4990221;28;20034;-71
2023/04/27 00:38:38;;;;;;;14.50;7.20;;;6.00;99.90;;;;;;4989825;28;20041;-71
2023/04/27 00:41:06;;;;;;;16.67;7.10;;;6.00;99.90;;;;;;4989875;28;20560;-71
2023/04/27 00:43:40;;;;;;;16.55;7.03;;;5.90;99.90;;;;;;4988621;28;20104;-71
2023/04/27 00:46:05;;;;;;;17.92;7.57;;;5.90;99.90;;;;;;4990869;28;20344;-71
2023/04/27 00:48:31;;;;;;;13.43;6.90;;;5.90;99.90;;;;;;4988642;28;20053;-72
2023/04/27 00:50:57;;;;;;;14.52;7.22;;;5.90;99.90;;;;;;4991070;28;20046;-72
2023/04/27 00:53:23;;;;;;;13.38;6.85;;;5.80;99.90;;;;;;4989870;28;20457;-72
2023/04/27 00:55:48;;;;;;;15.70;7.18;;;5.80;99.90;;;;;;4989402;28;20034;-71
2023/04/27 00:58:14;;;;;;;16.70;7.38;;;5.80;99.90;;;;;;4988191;28;20093;-70
2023/04/27 01:00:40;;;;;;;14.38;7.13;;;5.80;99.90;;;;;;4989676;28;20034;-71
2023/04/27 01:03:06;;;;;;;16.73;7.38;;;5.70;99.90;;;;;;4990499;28;20033;-71
2023/04/27 01:05:33;;;;;;;17.15;7.32;;;5.70;99.90;;;;;;4989309;28;20034;-72
2023/04/27 01:07:59;;;;;;;16.40;7.20;;;5.70;99.90;;;;;;4989624;28;20054;-72
2023/04/27 01:10:25;;;;;;;20.80;7.30;;;5.60;99.90;;;;;;4989051;28;20042;-72
2023/04/27 01:12:50;;;;;;;14.25;7.35;;;5.60;99.90;;;;;;4990455;28;20420;-72
2023/04/27 01:15:16;;;;;;;14.65;7.05;;;5.60;99.90;;;;;;4988123;28;20420;-72
2023/04/27 01:17:42;;;;;;;14.98;7.10;;;5.60;99.90;;;;;;4989261;28;20030;-72
2023/04/27 01:20:08;;;;;;;17.75;8.07;;;5.50;99.90;;;;;;4989176;28;20042;-72
2023/04/27 01:22:34;;;;;;;12.43;6.20;;;5.50;99.90;;;;;;4989235;28;20037;-72
2023/04/27 01:25:00;;;;;;;12.70;6.57;;;5.40;99.90;;;;;;4989557;28;20038;-72
2023/04/27 01:27:26;;;;;;;13.10;6.88;;;5.50;99.90;;;;;;4988417;28;20026;-72
2023/04/27 01:29:51;;;;;;;14.13;7.43;;;5.40;99.90;;;;;;4990407;28;20038;-72
2023/04/27 01:32:17;;;;;;;14.52;7.40;;;5.30;99.90;;;;;;4987276;28;20034;-72
2023/04/27 01:34:42;;;;;;;14.50;6.88;;;5.40;99.90;;;;;;4972705;28;20101;-72
2023/04/27 01:37:08;;;;;;;16.75;7.72;;;5.40;99.90;;;;;;4988922;28;20456;-71
2023/04/27 01:39:34;;;;;;;18.65;7.18;;;5.40;99.90;;;;;;4987456;28;20140;-72
2023/04/27 01:42:02;;;;;;;15.88;7.10;;;5.30;99.90;;;;;;4989296;28;20175;-72
2023/04/27 01:44:28;;;;;;;12.70;6.30;;;5.30;99.90;;;;;;4988038;28;20096;-72
2023/04/27 01:46:53;;;;;;;12.90;7.03;;;5.20;99.90;;;;;;4982681;28;20034;-72
2023/04/27 01:49:19;;;;;;;18.38;7.63;;;5.20;99.90;;;;;;4988096;28;20050;-72
2023/04/27 01:51:45;;;;;;;15.95;7.28;;;5.20;99.90;;;;;;4988627;28;20033;-71
2023/04/27 01:54:10;;;;;;;16.08;7.70;;;5.20;99.90;;;;;;4988860;28;20117;-72
2023/04/27 01:56:36;;;;;;;14.45;7.18;;;5.20;99.90;;;;;;4987501;28;20102;-72
2023/04/27 01:59:01;;;;;;;18.20;7.47;;;5.10;99.90;;;;;;4989658;28;20112;-71
2023/04/27 02:01:27;;;;;;;16.60;7.32;;;5.10;99.90;;;;;;4981112;28;20248;-73
2023/04/27 02:03:52;;;;;;;13.68;7.10;;;5.10;99.90;;;;;;4987544;28;20361;-71
2023/04/27 02:06:18;;;;;;;16.90;7.60;;;5.10;99.90;;;;;;4987147;28;20029;-72
2023/04/27 02:08:44;;;;;;;15.82;6.93;;;5.10;99.90;;;;;;4989677;28;20134;-71
2023/04/27 02:11:09;;;;;;;12.95;7.40;;;5.10;99.90;;;;;;4987862;28;20031;-71
2023/04/27 02:13:35;;;;;;;17.45;7.70;;;5.10;99.90;;;;;;4988947;28;20030;-71
2023/04/27 02:16:03;;;;;;;13.63;6.90;;;5.10;99.90;;;;;;4988780;28;20058;-72
2023/04/27 02:18:31;;;;;;;19.40;8.18;;;5.20;99.90;;;;;;4988086;28;20060;-72
2023/04/27 02:20:57;;;;;;;17.13;7.50;;;5.20;99.90;;;;;;4988271;28;20423;-72
2023/04/27 02:23:23;;;;;;;18.73;7.93;;;5.20;99.90;;;;;;4987865;28;20022;-72
2023/04/27 02:25:49;;;;;;;15.38;7.57;;;5.20;99.90;;;;;;4984830;28;20109;-72
2023/04/27 02:28:15;;;;;;;13.48;7.32;;;5.20;99.90;;;;;;4985244;28;20424;-71
2023/04/27 02:30:40;;;;;;;15.48;7.75;;;5.20;99.90;;;;;;4987089;28;20106;-72
2023/04/27 02:33:06;;;;;;;15.27;6.90;;;5.20;99.90;;;;;;4989631;28;20042;-72
2023/04/27 02:35:32;;;;;;;14.90;7.03;;;5.10;99.90;;;;;;4971060;28;20497;-72
2023/04/27 02:37:58;;;;;;;16.20;7.63;;;5.10;99.90;;;;;;4988239;28;20048;-73
2023/04/27 02:40:23;;;;;;;16.58;7.40;;;5.10;99.90;;;;;;4988204;28;20061;-73
2023/04/27 02:42:50;;;;;;;14.07;7.20;;;5.00;99.90;;;;;;4970735;28;20031;-72
2023/04/27 02:45:16;;;;;;;17.30;7.47;;;5.10;99.90;;;;;;4980955;28;20037;-72
2023/04/27 02:47:41;;;;;;;14.70;7.15;;;5.10;99.90;;;;;;4969187;28;20038;-71
2023/04/27 02:50:07;;;;;;;16.70;7.45;;;5.10;99.90;;;;;;4986588;28;20038;-71
2023/04/27 02:52:33;;;;;;;14.52;7.45;;;5.10;99.90;;;;;;4987967;28;20466;-72
2023/04/27 02:54:59;;;;;;;15.20;7.88;;;5.10;99.90;;;;;;4987358;28;20030;-72
2023/04/27 02:57:24;;;;;;;19.35;8.43;;;5.10;99.90;;;;;;4988042;28;20486;-73
2023/04/27 02:59:50;;;;;;;17.40;7.72;;;5.00;99.90;;;;;;4987925;28;20030;-72
2023/04/27 03:02:16;;;;;;;17.92;7.90;;;5.00;99.90;;;;;;4975252;28;20039;-72
2023/04/27 03:04:42;;;;;;;14.65;7.00;;;5.10;99.90;;;;;;4989004;28;20034;-72
2023/04/27 03:07:07;;;;;;;12.93;7.10;;;5.00;99.90;;;;;;4987989;28;20027;-72
2023/04/27 03:09:33;;;;;;;16.98;7.28;;;5.00;99.90;;;;;;4987028;28;20225;-72
2023/04/27 03:11:59;;;;;;;13.57;7.40;;;5.00;99.90;;;;;;4988790;28;20049;-72
2023/04/27 03:14:24;;;;;;;16.02;7.32;;;4.90;99.90;;;;;;4987012;28;20033;-71
2023/04/27 03:16:50;;;;;;;17.15;7.88;;;4.80;99.90;;;;;;4989080;28;20034;-71
2023/04/27 03:19:16;;;;;;;14.27;7.45;;;4.70;99.90;;;;;;4988455;28;20058;-72
2023/04/27 03:21:42;;;;;;;16.85;7.80;;;4.60;99.90;;;;;;4987985;28;20092;-73
2023/04/27 03:24:07;;;;;;;17.00;7.50;;;4.60;99.90;;;;;;4987962;28;20093;-71
2023/04/27 03:26:33;;;;;;;17.83;7.93;;;4.70;99.90;;;;;;4987688;28;20524;-71
2023/04/27 03:28:58;;;;;;;16.30;7.68;;;4.80;99.90;;;;;;4986987;28;20030;-71
2023/04/27 03:31:24;;;;;;;16.27;7.53;;;4.80;99.90;;;;;;4980542;28;20129;-71
2023/04/27 03:33:50;;;;;;;14.25;6.82;;;4.90;99.90;;;;;;4982083;28;20057;-71
2023/04/27 03:36:15;;;;;;;21.63;7.22;;;4.90;99.90;;;;;;4970768;28;20050;-71
2023/04/27 03:38:41;;;;;;;17.50;7.43;;;4.90;99.90;;;;;;4987714;28;20042;-71
2023/04/27 03:41:07;;;;;;;15.45;7.18;;;4.90;99.90;;;;;;4988238;28;20034;-71
2023/04/27 03:43:32;;;;;;;16.80;7.18;;;4.90;99.90;;;;;;4987168;28;20038;-72
2023/04/27 03:45:58;;;;;;;18.05;7.45;;;5.00;99.90;;;;;;4987774;28;20031;-73
2023/04/27 03:48:23;;;;;;;14.10;7.13;;;4.90;99.90;;;;;;4988117;28;20113;-73
2023/04/27 03:50:49;;;;;;;15.35;7.57;;;5.00;99.90;;;;;;4987273;28;20034;-73
2023/04/27 03:53:15;;;;;;;17.58;7.53;;;5.00;99.90;;;;;;4986618;28;20034;-73
2023/04/27 03:55:42;;;;;;;17.10;7.65;;;5.00;99.90;;;;;;4976816;28;20568;-72
2023/04/27 03:58:10;;;;;;;17.70;7.68;;;5.00;99.90;;;;;;4988646;28;20124;-72
2023/04/27 04:00:37;;;;;;;17.25;7.97;;;5.10;99.90;;;;;;4986739;28;21843;-72
2023/04/27 04:03:03;;;;;;;18.60;7.20;;;5.00;99.90;;;;;;4986386;28;20101;-73
2023/04/27 04:05:29;;;;;;;14.95;7.45;;;5.10;99.90;;;;;;4987098;28;20460;-73
2023/04/27 04:07:56;;;;;;;15.88;7.28;;;5.00;99.90;;;;;;4986232;28;20058;-73
2023/04/27 04:10:22;;;;;;;18.10;7.72;;;5.00;99.90;;;;;;4987309;28;20710;-73
2023/04/27 04:12:47;;;;;;;17.27;7.45;;;5.00;99.90;;;;;;4988084;28;20038;-73
2023/04/27 04:15:13;;;;;;;17.02;7.68;;;5.00;99.90;;;;;;4983837;28;20027;-73
2023/04/27 04:17:38;;;;;;;13.52;7.15;;;5.00;99.90;;;;;;4966123;28;20533;-73
2023/04/27 04:20:09;;;;;;;13.40;7.30;;;5.00;99.90;;;;;;4974153;28;20128;-73
2023/04/27 04:22:35;;;;;;;17.55;7.45;;;5.00;99.90;;;;;;4990394;28;20026;-71
2023/04/27 04:25:01;;;;;;;16.40;7.97;;;5.00;99.90;;;;;;4991675;28;20417;-72
2023/04/27 04:27:27;;;;;;;12.93;7.38;;;5.00;99.90;;;;;;4989936;28;20026;-71
2023/04/27 04:29:52;;;;;;;13.00;6.82;;;5.00;99.90;;;;;;4991070;28;20045;-72
2023/04/27 04:32:19;;;;;;;13.43;7.18;;;5.00;99.90;;;;;;4991760;28;20034;-72
2023/04/27 04:34:51;;;;;;;15.07;7.43;;;5.00;99.90;;;;;;4989082;28;20026;-72
2023/04/27 04:37:19;;;;;;;22.08;7.10;;;5.10;99.90;;;;;;4991678;28;20038;-72
2023/04/27 04:39:45;;;;;;;16.85;7.50;;;5.10;99.90;;;;;;4996482;28;20042;-73
2023/04/27 04:42:11;;;;;;;15.50;7.15;;;5.10;99.90;;;;;;4992119;28;20081;-72
2023/04/27 04:44:37;;;;;;;16.83;7.57;;;5.20;99.90;;;;;;4989866;28;20050;-72
2023/04/27 04:47:03;;;;;;;15.10;7.25;;;5.20;99.90;;;;;;5006449;28;20039;-73
2023/04/27 04:49:29;;;;;;;16.38;8.27;;;5.20;99.90;;;;;;4990038;28;20042;-72
2023/04/27 04:51:55;;;;;;;15.32;8.70;;;5.20;99.90;;;;;;4991064;28;20026;-72
2023/04/27 04:54:21;;;;;;;17.48;8.77;;;5.20;99.90;;;;;;4989659;28;20038;-72
2023/04/27 04:56:46;;;;;;;16.45;7.88;;;5.20;99.90;;;;;;4990456;28;20038;-72
2023/04/27 04:59:12;;;;;;;15.73;8.02;;;5.30;99.90;;;;;;4990509;28;20364;-73
2023/04/27 05:01:37;;;;;;;17.05;8.25;;;5.20;99.90;;;;;;4989692;28;20035;-73
2023/04/27 05:04:03;;;;;;;16.15;8.50;;;5.30;99.90;;;;;;4989078;28;20479;-73
2023/04/27 05:06:29;;;;;;;18.17;8.40;;;5.20;99.90;;;;;;4988292;28;20038;-73
2023/04/27 05:08:55;;;;;;;19.27;8.18;;;5.30;99.90;;;;;;4986782;28;20059;-73
2023/04/27 05:11:21;;;;;;;15.70;8.32;;;5.30;99.90;;;;;;4971765;28;20043;-73
2023/04/27 05:13:46;;;;;;;24.15;8.23;;;5.30;99.90;;;;;;4977718;28;20030;-72
2023/04/27 05:16:12;;;;;;;17.88;8.23;;;5.30;99.90;;;;;;4990632;28;20478;-73
2023/04/27 05:18:38;;;;;;;14.40;7.68;;;5.40;99.90;;;;;;4990090;28;20022;-73
2023/04/27 05:21:04;;;;;;;16.52;8.70;;;5.40;99.90;;;;;;4973441;28;20042;-73
2023/04/27 05:23:29;;;;;;;13.80;7.55;;;5.40;99.90;;;;;;4989421;28;20054;-73
2023/04/27 05:25:55;;;;;;;19.02;7.93;;;5.50;99.90;;;;;;4990582;28;20120;-73
2023/04/27 05:28:21;;;;;;;14.13;7.90;;;5.40;99.90;;;;;;4989042;28;20054;-73
2023/04/27 05:30:46;;;;;;;20.60;8.32;;;5.40;99.90;;;;;;4989680;28;20026;-73
2023/04/27 05:33:12;;;;;;;17.13;8.45;;;5.50;99.90;;;;;;4990008;28;20487;-73
2023/04/27 05:35:38;;;;;;;16.98;8.50;;;5.50;99.90;;;;;;4981465;28;20027;-73
2023/04/27 05:38:03;;;;;;;14.00;7.90;;;5.60;99.90;;;;;;4976990;28;20062;-72
2023/04/27 05:40:29;;;;;;;17.17;8.13;;;5.60;99.90;;;;;;4969291;28;20034;-73
2023/04/27 05:42:55;;;;;;;17.15;8.27;;;5.70;99.90;;;;;;4988746;28;20441;-73
2023/04/27 05:45:21;;;;;;;15.80;7.47;;;5.80;99.90;;;;;;4990244;28;20518;-73
2023/04/27 05:47:47;;;;;;;17.27;8.18;;;5.90;99.90;;;;;;4984403;28;20211;-73
2023/04/27 05:50:13;;;;;;;17.90;8.43;;;6.00;99.90;;;;;;4970784;28;20113;-73
2023/04/27 05:52:38;;;;;;;14.43;7.72;;;6.00;99.90;;;;;;4970228;28;20137;-73
2023/04/27 05:55:06;;;;;;;20.27;7.70;;;6.10;99.90;;;;;;4987836;28;20550;-73
2023/04/27 05:57:32;;;;;;;15.40;7.85;;;6.10;99.90;;;;;;4988434;28;20050;-73
2023/04/27 05:59:59;;;;;;;22.20;10.50;;;6.30;99.90;;;;;;4982291;28;20456;-73
2023/04/27 06:02:25;;;;;;;22.10;8.80;;;6.40;99.90;;;;;;4990121;28;20037;-73
2023/04/27 06:04:50;;;;;;;17.42;8.75;;;6.50;99.90;;;;;;4988448;28;20034;-73
2023/04/27 06:07:16;;;;;;;18.23;8.50;;;6.50;99.90;;;;;;5003753;28;20040;-71
2023/04/27 06:09:41;;;;;;;17.30;7.93;;;6.60;99.90;;;;;;4987811;28;20069;-73
2023/04/27 06:12:08;;;;;;;20.42;8.48;;;6.60;99.90;;;;;;4988248;28;20038;-73
2023/04/27 06:14:35;;;;;;;17.40;8.95;;;6.60;99.90;;;;;;4987523;28;20097;-72
2023/04/27 06:17:02;;;;;;;20.73;8.57;;;6.70;99.90;;;;;;4988126;28;20474;-71
2023/04/27 06:19:27;;;;;;;19.60;9.15;;;6.80;99.90;;;;;;4986872;28;20139;-71
2023/04/27 06:21:54;;;;;;;15.50;8.05;;;6.80;99.90;;;;;;4986665;28;20509;-72
2023/04/27 06:24:20;;;;;;;15.25;8.10;;;6.80;99.90;;;;;;4985769;28;20487;-72
2023/04/27 06:26:46;;;;;;;17.67;8.38;;;6.80;99.90;;;;;;4987581;28;20034;-71
2023/04/27 06:29:11;;;;;;;16.58;8.45;;;6.90;99.90;;;;;;4984805;28;20042;-71
2023/04/27 06:31:37;;;;;;;17.23;7.63;;;7.00;99.90;;;;;;4987159;28;20058;-71
2023/04/27 06:34:03;;;;;;;17.48;8.20;;;7.00;99.90;;;;;;4987692;28;20024;-75
2023/04/27 06:36:30;;;;;;;15.18;7.43;;;7.10;99.90;;;;;;4988054;28;20022;-76
2023/04/27 06:38:56;;;;;;;16.52;8.18;;;7.30;99.90;;;;;;4982672;28;20034;-74
2023/04/27 06:41:23;;;;;;;15.93;7.50;;;7.40;99.90;;;;;;4975541;28;20046;-74
2023/04/27 06:43:49;;;;;;;15.15;7.50;;;7.60;99.90;;;;;;4985701;28;20046;-75
2023/04/27 06:46:14;;;;;;;14.90;7.50;;;7.70;99.90;;;;;;4988452;28;20120;-75
2023/04/27 06:48:40;;;;;;;13.02;7.22;;;7.70;99.90;;;;;;4986970;28;20034;-74
2023/04/27 06:51:06;;;;;;;15.88;8.00;;;7.80;99.90;;;;;;4987537;28;20050;-75
2023/04/27 06:53:32;;;;;;;19.63;8.15;;;8.00;99.90;;;;;;4987735;28;20030;-77
2023/04/27 06:55:58;;;;;;;18.70;7.88;;;8.00;99.90;;;;;;4971796;28;20478;-79
2023/04/27 06:58:23;;;;;;;14.60;7.18;;;8.10;99.90;;;;;;4987576;28;20031;-76
2023/04/27 07:00:49;;;;;;;15.10;7.22;;;8.20;99.90;;;;;;4987213;28;20606;-78
2023/04/27 07:03:15;;;;;;;15.65;7.80;;;8.40;99.90;;;;;;4988126;28;20030;-76
2023/04/27 07:05:41;;;;;;;15.80;7.85;;;8.60;99.90;;;;;;4986742;28;20030;-77
2023/04/27 07:08:06;;;;;;;20.73;7.90;;;8.60;99.90;;;;;;4987676;28;20058;-76
2023/04/27 07:10:32;;;;;;;20.05;8.35;;;8.80;99.90;;;;;;4984005;28;20422;-80
2023/04/27 07:12:58;;;;;;;14.63;7.53;;;8.90;99.90;;;;;;4989066;28;20030;-76
2023/04/27 07:15:23;;;;;;;18.13;8.65;;;9.00;99.90;;;;;;4989198;28;20382;-75
2023/04/27 07:17:55;;;;;;;17.48;8.00;;;9.10;99.90;;;;;;4988047;28;20026;-78
2023/04/27 07:20:21;;;;;;;14.55;7.53;;;9.20;99.90;;;;;;4985684;28;20113;-77
2023/04/27 07:22:46;;;;;;;22.52;9.23;;;9.30;99.90;;;;;;4984008;28;20109;-76
2023/04/27 07:25:12;;;;;;;20.58;9.30;;;9.50;99.90;;;;;;4987296;28;20037;-78
2023/04/27 07:27:38;;;;;;;17.85;7.95;;;9.70;99.90;;;;;;4987745;28;20030;-77
2023/04/27 07:30:07;;;;;;;20.63;8.02;;;9.80;99.90;;;;;;4988323;28;20418;-76
2023/04/27 07:32:33;;;;;;;15.23;6.18;;;9.90;99.90;;;;;;4987842;28;20118;-79
2023/04/27 07:34:59;;;;;;;17.25;6.22;;;10.00;99.90;;;;;;4987161;28;20114;-78
2023/04/27 07:37:25;;;;;;;20.25;7.43;;;10.20;99.90;;;;;;4986790;28;20120;-78
2023/04/27 07:39:51;;;;;;;20.25;7.88;;;10.40;99.90;;;;;;4986074;28;20313;-79
2023/04/27 07:42:18;;;;;;;12.93;5.93;;;10.60;99.90;;;;;;4988799;28;20419;-78
2023/04/27 07:44:43;;;;;;;11.93;5.45;;;10.70;99.90;;;;;;4985654;28;20030;-79
2023/04/27 07:47:09;;;;;;;14.40;5.85;;;10.90;99.90;;;;;;4988396;28;20038;-79
2023/04/27 07:49:36;;;;;;;13.88;5.55;;;11.10;99.90;;;;;;4987906;28;20038;-79
2023/04/27 07:52:03;;;;;;;13.32;5.35;;;11.20;99.90;;;;;;4988415;28;20038;-80
2023/04/27 07:54:29;;;;;;;12.38;4.72;;;11.30;99.90;;;;;;4991873;28;20383;-81
2023/04/27 07:56:55;;;;;;;8.98;3.92;;;11.30;99.90;;;;;;4991728;28;20030;-79
2023/04/27 07:59:20;;;;;;;11.55;4.43;;;11.40;99.90;;;;;;4992631;28;20541;-78
2023/04/27 08:01:46;;;;;;;15.20;4.30;;;11.50;99.90;;;;;;4990156;28;20037;-77
2023/04/27 08:04:12;;;;;;;10.88;4.65;;;11.60;99.90;;;;;;4977696;28;20031;-77
2023/04/27 08:06:38;;;;;;;9.57;5.07;;;11.70;99.90;;;;;;4990794;28;20030;-79
2023/04/27 08:09:04;;;;;;;11.52;4.40;;;11.90;99.90;;;;;;4992791;28;20059;-79
2023/04/27 08:11:30;;;;;;;12.30;4.80;;;12.00;99.90;;;;;;4992684;28;20493;-78
2023/04/27 08:13:56;;;;;;;8.70;4.00;;;12.20;99.90;;;;;;4989325;28;20022;-78
2023/04/27 08:16:22;;;;;;;11.35;4.57;;;12.30;99.90;;;;;;5000182;28;20085;-78
2023/04/27 08:18:48;;;;;;;11.95;4.32;;;12.40;99.90;;;;;;4990553;28;20038;-78
2023/04/27 08:21:14;;;;;;;11.02;4.50;;;12.50;99.90;;;;;;4992233;28;20046;-79
2023/04/27 08:23:41;;;;;;;12.95;4.95;;;12.40;99.90;;;;;;4990790;28;20030;-79
2023/04/27 08:26:06;;;;;;;11.32;4.60;;;12.30;99.90;;;;;;4991441;28;20671;-79
2023/04/27 08:28:32;;;;;;;9.45;4.53;;;12.30;99.90;;;;;;4991283;28;20109;-77
2023/04/27 08:30:58;;;;;;;10.25;5.15;;;12.40;99.90;;;;;;4991130;28;20138;-80
2023/04/27 08:33:24;;;;;;;10.82;5.15;;;12.60;99.90;;;;;;4991241;28;20025;-79
2023/04/27 08:35:52;;;;;;;12.80;5.32;;;12.70;99.90;;;;;;4991154;28;20033;-78
2023/04/27 08:38:18;;;;;;;12.35;5.03;;;13.00;99.90;;;;;;4987977;28;20062;-78
2023/04/27 08:40:44;;;;;;;12.63;5.45;;;13.20;99.90;;;;;;4972010;28;20136;-78
2023/04/27 08:43:10;;;;;;;12.55;5.05;;;13.40;99.90;;;;;;4990066;28;20030;-79
2023/04/27 08:45:36;;;;;;;11.13;5.07;;;13.40;99.90;;;;;;4988622;28;20455;-83
2023/04/27 08:48:02;;;;;;;13.02;5.53;;;13.60;99.90;;;;;;4988730;28;20093;-78
2023/04/27 08:50:28;;;;;;;11.93;4.63;;;13.60;99.90;;;;;;4991115;28;20447;-77
2023/04/27 08:52:54;;;;;;;14.45;4.45;;;13.70;99.90;;;;;;4990025;28;20033;-76
2023/04/27 08:55:20;;;;;;;10.65;4.85;;;13.40;99.90;;;;;;4991542;28;20038;-76
2023/04/27 08:57:57;;;;;;;11.90;4.50;;;13.40;99.90;;;;;;5005621;28;20105;-77
2023/04/27 09:00:24;;;;;;;11.82;5.30;;;13.40;99.90;;;;;;4991425;28;20038;-76
2023/04/27 09:02:49;;;;;;;10.35;4.45;;;13.60;99.60;;;;;;4988383;28;20031;-76
2023/04/27 09:05:20;;;;;;;12.30;4.65;;;13.60;98.50;;;;;;4978469;28;20034;-76
2023/04/27 09:08:07;;;;;;;13.60;4.82;;;13.70;99.10;;;;;;4983266;28;20042;-76
2023/04/27 09:10:46;;;;;;;12.80;4.80;;;13.90;99.90;;;;;;4987012;28;20061;-75
2023/04/27 09:13:12;;;;;;;11.97;4.40;;;14.10;99.90;;;;;;4993402;28;20034;-75
2023/04/27 09:15:41;;;;;;;10.43;4.68;;;14.40;99.90;;;;;;4990021;28;20041;-75
2023/04/27 09:18:18;;;;;;;14.10;5.22;;;14.70;99.90;;;;;;4990195;28;20041;-75
2023/04/27 09:20:46;;;;;;;8.45;4.70;;;14.70;99.70;;;;;;4988414;28;20042;-75
2023/04/27 09:23:26;;;;;;;10.63;5.03;;;14.60;99.90;;;;;;4990963;28;20050;-75
2023/04/27 09:25:53;;;;;;;11.60;4.35;;;14.20;99.90;;;;;;4990319;28;20034;-74
2023/04/27 09:28:19;;;;;;;15.15;4.97;;;14.20;99.90;;;;;;4989412;28;20486;-75
2023/04/27 09:30:52;;;;;;;11.98;4.90;;;14.30;99.90;;;;;;4989353;28;20034;-74
2023/04/27 09:33:26;;;;;;;11.15;4.50;;;14.20;99.90;;;;;;4990466;28;20045;-75
2023/04/27 09:35:52;;;;;;;9.82;4.55;;;14.50;99.90;;;;;;4989726;28;20165;-77
2023/04/27 09:38:19;;;;;;;9.82;4.93;;;14.80;99.00;;;;;;4973209;28;20034;-74
2023/04/27 09:40:46;;;;;;;8.55;4.68;;;15.10;99.60;;;;;;4989084;28;20053;-75
2023/04/27 09:43:11;;;;;;;12.90;4.28;;;15.00;93.80;;;;;;4989949;28;20076;-75
2023/04/27 09:45:37;;;;;;;8.13;4.50;;;14.80;95.60;;;;;;4990561;28;20105;-75
2023/04/27 09:48:05;;;;;;;8.18;4.20;;;14.70;95.30;;;;;;4989805;28;20506;-75
2023/04/27 09:50:38;;;;;;;8.73;4.57;;;15.00;95.50;;;;;;4990282;28;20039;-75
2023/04/27 09:53:32;;;;;;;10.95;4.75;;;15.00;97.80;;;;;;4988905;28;20039;-75
2023/04/27 09:56:36;;;;;;;11.48;4.30;;;15.00;94.80;;;;;;4988784;28;20046;-75
2023/04/27 09:59:32;;;;;;;12.43;4.60;;;15.30;96.30;;;;;;4989892;28;20078;-75
2023/04/27 10:01:59;;;;;;;9.75;4.13;;;15.20;99.20;;;;;;4993090;28;20030;-75
2023/04/27 10:04:44;;;;;;;13.13;4.90;;;14.90;95.40;;;;;;4989766;28;20026;-74
2023/04/27 10:07:13;;;;;;;10.20;4.68;;;14.70;96.60;;;;;;4989845;28;20042;-76
2023/04/27 10:09:41;;;;;;;13.07;5.03;;;14.90;95.80;;;;;;4989780;28;20062;-75
2023/04/27 10:12:18;;;;;;;11.00;4.88;;;15.00;96.60;;;;;;4989131;28;20038;-75
2023/04/27 10:15:16;;;;;;;9.77;4.78;;;15.10;97.40;;;;;;4994768;28;20391;-75
2023/04/27 10:17:52;;;;;;;10.68;5.20;;;15.00;98.00;;;;;;4970072;28;20438;-75
2023/04/27 10:20:28;;;;;;;12.13;4.95;;;15.30;93.40;;;;;;4989982;28;20096;-75
2023/04/27 10:22:54;;;;;;;12.30;4.90;;;15.50;94.30;;;;;;4970880;28;20038;-76
2023/04/27 10:25:28;;;;;;;12.27;5.38;;;15.40;94.50;;;;;;4989891;28;20041;-76
2023/04/27 10:27:57;;;;;;;9.60;4.47;;;15.30;93.50;;;;;;4989022;28;20102;-75
2023/04/27 10:30:25;;;;;;;11.00;3.95;;;15.40;91.10;;;;;;4989713;28;20097;-75
2023/04/27 10:32:58;;;;;;;13.10;5.70;;;15.70;95.00;;;;;;4988111;28;20041;-76
2023/04/27 10:35:44;;;;;;;13.93;5.97;;;15.80;93.50;;;;;;5004405;28;20029;-75
2023/04/27 10:38:21;;;;;;;11.35;6.10;;;16.20;99.90;;;;;;4970548;28;20049;-75
2023/04/27 10:41:00;;;;;;;11.32;5.60;;;16.60;96.50;;;;;;4969478;28;20042;-74
2023/04/27 10:43:28;;;;;;;13.75;5.13;;;16.60;89.90;;;;;;4988671;28;20800;-76
2023/04/27 10:46:05;;;;;;;12.93;5.00;;;16.50;94.70;;;;;;4988693;28;20037;-76
2023/04/27 10:48:31;;;;;;;12.35;4.72;;;16.20;93.20;;;;;;4971328;28;20112;-74
2023/04/27 10:50:57;;;;;;;7.53;4.70;;;15.70;93.20;;;;;;4987688;28;20101;-76
2023/04/27 10:53:23;;;;;;;15.00;5.22;;;15.50;97.00;;;;;;4988786;28;20030;-75
2023/04/27 10:55:54;;;;;;;9.52;4.88;;;15.90;88.90;;;;;;4988139;28;20486;-74
2023/04/27 10:58:23;;;;;;;15.60;4.95;;;16.30;91.40;;;;;;4989158;28;20027;-74
2023/04/27 11:00:49;;;;;;;11.93;4.70;;;16.40;86.40;;;;;;4987903;28;20034;-74
2023/04/27 11:03:21;;;;;;;11.32;4.85;;;16.30;89.60;;;;;;4988269;28;20034;-77
2023/04/27 11:05:57;;;;;;;11.23;4.22;;;16.40;91.70;;;;;;4988446;28;20066;-76
2023/04/27 11:08:23;;;;;;;11.40;4.80;;;16.20;91.40;;;;;;4988749;28;20062;-76
2023/04/27 11:10:50;;;;;;;11.02;4.75;;;16.60;85.80;;;;;;4987976;28;20038;-76
2023/04/27 11:13:22;;;;;;;9.93;4.60;;;17.00;90.50;;;;;;4987985;28;20033;-76
2023/04/27 11:15:47;;;;;;;12.20;4.95;;;16.90;83.90;;;;;;4988728;28;20383;-74
2023/04/27 11:18:14;;;;;;;11.77;5.00;;;16.50;91.50;;;;;;4988773;28;20026;-74
2023/04/27 11:20:40;;;;;;;12.95;5.15;;;16.30;86.70;;;;;;4988723;28;20034;-74
2023/04/27 11:23:09;;;;;;;10.73;4.50;;;15.90;90.50;;;;;;4987193;28;20062;-75
2023/04/27 11:25:36;;;;;;;12.05;4.68;;;15.90;91.30;;;;;;4988912;28;20026;-77
2023/04/27 11:28:03;;;;;;;10.32;4.32;;;16.40;85.10;;;;;;4987397;28;20037;-75
2023/04/27 11:30:30;;;;;;;7.95;3.38;;;16.60;81.90;;;;;;4988886;28;20042;-76
2023/04/27 11:32:56;;;;;;;8.35;3.80;;;16.90;83.20;;;;;;4982532;28;20113;-74
2023/04/27 11:35:34;;;;;;;6.68;3.67;;;16.60;90.30;;;;;;4969387;28;20086;-75
2023/04/27 11:38:00;;;;;;;13.38;4.15;;;16.30;82.40;;;;;;4968409;28;20395;-76
2023/04/27 11:40:27;;;;;;;11.00;3.67;;;16.40;86.10;;;;;;4969094;28;20523;-76
2023/04/27 11:43:02;;;;;;;9.65;3.60;;;16.90;78.20;;;;;;4997276;28;20167;-76
2023/04/27 11:45:28;;;;;;;8.93;3.72;;;17.50;77.80;;;;;;4988846;28;20034;-76
2023/04/27 11:47:57;;;;;;;12.38;3.92;;;17.70;78.10;;;;;;4987623;28;20033;-75
2023/04/27 11:50:26;;;;;;;10.52;3.90;;;18.10;80.80;;;;;;4988850;28;20057;-75
2023/04/27 11:52:52;;;;;;;10.60;4.35;;;18.00;81.10;;;;;;4986551;28;20113;-74
2023/04/27 11:55:20;;;;;;;8.88;3.92;;;18.00;77.50;;;;;;4988137;28;20555;-74
2023/04/27 11:57:46;;;;;;;9.63;3.65;;;17.90;73.90;;;;;;4988617;28;20384;-75
2023/04/27 12:00:13;;;;;;;12.30;3.95;;;17.80;84.90;;;;;;4987820;28;20045;-75
2023/04/27 12:02:39;;;;;;;6.03;3.58;;;18.20;81.80;;;;;;4987099;28;20119;-75
2023/04/27 12:05:06;;;;;;;27.25;6.72;;;18.40;70.60;;;;;;4996221;28;20084;-76
2023/04/27 12:07:32;;;;;;;9.20;3.78;;;18.20;71.40;;;;;;5007219;28;20560;-74
2023/04/27 12:09:57;;;;;;;12.13;3.72;;;18.30;77.60;;;;;;4991553;28;20060;-74
2023/04/27 12:12:23;;;;;;;6.85;3.53;;;18.30;70.60;;;;;;4996962;28;20034;-76
2023/04/27 12:14:50;;;;;;;8.68;3.50;;;18.40;78.30;;;;;;4988317;28;20555;-74
2023/04/27 12:17:16;;;;;;;8.77;3.47;;;18.40;76.50;;;;;;4976629;28;20030;-75
2023/04/27 12:19:42;;;;;;;8.15;3.45;;;18.30;80.50;;;;;;4988571;28;20073;-76
2023/04/27 12:22:08;;;;;;;10.65;3.95;;;18.60;79.20;;;;;;4986677;28;20050;-74
2023/04/27 12:24:35;;;;;;;9.57;3.63;;;18.70;83.80;;;;;;4988668;28;20034;-74
2023/04/27 12:27:02;;;;;;;10.85;4.28;;;18.70;83.70;;;;;;4987741;28;20062;-73
2023/04/27 12:29:27;;;;;;;8.57;3.92;;;19.00;86.80;;;;;;4988188;28;20090;-76
2023/04/27 12:31:53;;;;;;;7.78;3.78;;;19.40;77.60;;;;;;4987067;28;20034;-75
2023/04/27 12:34:19;;;;;;;8.38;3.30;;;19.60;78.00;;;;;;4988104;28;20027;-74
2023/04/27 12:36:45;;;;;;;8.45;3.83;;;19.40;73.90;;;;;;4988411;28;20038;-76
2023/04/27 12:39:18;;;;;;;10.35;3.65;;;19.30;75.00;;;;;;4990020;28;20043;-75
2023/04/27 12:41:45;;;;;;;8.30;3.45;;;19.20;76.40;;;;;;4990720;28;20501;-76
2023/04/27 12:44:12;;;;;;;14.15;3.55;;;19.40;85.00;;;;;;4991032;28;20026;-77